Time;durP1;ratioP1;P1;durP2;ratioP2;P2;SDS_P1;SDS_P2;PMS_P1;PMS_P2;Temp;Humidity;BMP_temperature;BMP_pressure;BME280_temperature;BME280_humidity;BME280_pressure;Samples;Min_cycle;Max_cycle;Signal;HPM_P1;HPM_P2
2023/03/15 00:01:14;;;;;;;7.55;2.10;;;;;;;3.01;100.00;101119.66;4901644;29;20048;-76
2023/03/15 00:03:42;;;;;;;5.50;2.00;;;;;;;2.86;100.00;101109.28;4893095;29;20056;-74
2023/03/15 00:06:09;;;;;;;4.13;1.58;;;;;;;2.79;100.00;101109.72;4899290;29;20280;-73
2023/03/15 00:08:36;;;;;;;3.67;1.58;;;;;;;2.80;100.00;101116.56;4906373;29;20456;-73
2023/03/15 00:11:03;;;;;;;3.03;1.10;;;;;;;2.70;100.00;101105.88;4906799;29;20497;-74
2023/03/15 00:13:30;;;;;;;1.50;1.10;;;;;;;2.61;100.00;101114.16;4886148;29;20474;-72
2023/03/15 00:15:59;;;;;;;2.33;1.05;;;;;;;2.53;100.00;101115.47;4891875;29;20402;-73
2023/03/15 00:18:26;;;;;;;1.90;1.20;;;;;;;2.41;100.00;101104.94;4898978;29;20560;-73
2023/03/15 00:20:53;;;;;;;2.78;1.30;;;;;;;2.39;100.00;101107.63;4903192;29;20548;-74
2023/03/15 00:23:20;;;;;;;2.88;1.30;;;;;;;2.40;100.00;101100.72;4902806;29;20047;-74
2023/03/15 00:25:49;;;;;;;1.20;1.10;;;;;;;2.38;100.00;101091.25;4864361;29;20048;-73
2023/03/15 00:28:16;;;;;;;2.00;1.30;;;;;;;2.29;100.00;101096.94;4909899;29;20104;-72
2023/03/15 00:30:42;;;;;;;3.03;1.30;;;;;;;2.36;100.00;101100.88;4902101;29;20424;-73
2023/03/15 00:33:13;;;;;;;3.00;1.50;;;;;;;2.48;100.00;101094.16;4906502;29;20166;-73
2023/03/15 00:35:44;;;;;;;1.42;1.20;;;;;;;2.55;100.00;101116.22;4896719;29;20048;-73
2023/03/15 00:38:12;;;;;;;1.65;1.27;;;;;;;2.57;100.00;101122.13;4907915;29;20060;-74
2023/03/15 00:40:39;;;;;;;3.83;1.30;;;;;;;2.54;100.00;101111.94;4908092;29;20523;-73
2023/03/15 00:43:05;;;;;;;1.98;1.13;;;;;;;2.64;100.00;101116.59;4902643;29;20143;-74
2023/03/15 00:45:32;;;;;;;1.83;1.00;;;;;;;2.58;100.00;101113.44;4909054;29;20482;-74
2023/03/15 00:47:59;;;;;;;1.15;0.90;;;;;;;2.67;100.00;101122.44;4895312;29;20769;-73
2023/03/15 00:50:26;;;;;;;1.20;0.80;;;;;;;2.69;100.00;101119.78;4904613;29;20560;-73
2023/03/15 00:52:53;;;;;;;1.48;1.00;;;;;;;2.59;100.00;101116.88;4901252;29;20103;-74
2023/03/15 00:55:20;;;;;;;1.30;1.10;;;;;;;2.57;100.00;101116.13;4890256;29;20146;-73
2023/03/15 00:57:47;;;;;;;2.83;1.25;;;;;;;2.61;100.00;101112.44;4904466;29;20134;-73
2023/03/15 01:00:22;;;;;;;2.88;1.40;;;;;;;2.60;100.00;101112.53;4898174;29;20052;-74
2023/03/15 01:02:52;;;;;;;1.85;1.40;;;;;;;2.60;100.00;101117.69;4885522;29;20087;-74
2023/03/15 01:05:20;;;;;;;2.58;1.70;;;;;;;2.50;100.00;101120.81;4883817;29;20052;-74
2023/03/15 01:07:47;;;;;;;2.97;1.92;;;;;;;2.52;100.00;101121.56;4908605;29;20123;-73
2023/03/15 01:10:15;;;;;;;2.40;2.00;;;;;;;2.58;100.00;101123.78;4902636;29;20052;-73
2023/03/15 01:12:43;;;;;;;5.82;2.10;;;;;;;2.56;100.00;101132.56;4889734;29;20347;-74
2023/03/15 01:15:12;;;;;;;2.80;2.10;;;;;;;2.60;100.00;101130.66;4906588;29;20056;-74
2023/03/15 01:17:39;;;;;;;3.13;2.15;;;;;;;2.64;100.00;101140.75;4897511;29;20052;-73
2023/03/15 01:20:07;;;;;;;4.97;2.35;;;;;;;2.62;100.00;101137.41;4907788;29;20058;-74
2023/03/15 01:22:33;;;;;;;3.85;2.47;;;;;;;2.63;100.00;101144.25;4902870;29;20062;-74
2023/03/15 01:25:00;;;;;;;3.25;2.38;;;;;;;2.70;100.00;101147.31;4912211;29;20702;-74
2023/03/15 01:27:26;;;;;;;2.97;2.03;;;;;;;2.74;100.00;101151.41;4906219;29;20048;-75
2023/03/15 01:29:53;;;;;;;4.30;2.65;;;;;;;2.72;100.00;101155.84;4904728;29;20116;-74
2023/03/15 01:32:19;;;;;;;2.90;2.38;;;;;;;2.69;100.00;101156.03;4903273;29;20055;-75
2023/03/15 01:34:46;;;;;;;3.72;2.60;;;;;;;2.76;100.00;101153.00;4899707;29;20071;-74
2023/03/15 01:37:13;;;;;;;3.58;2.30;;;;;;;2.76;100.00;101154.75;4911637;29;20048;-75
2023/03/15 01:39:41;;;;;;;4.45;2.58;;;;;;;2.82;100.00;101159.56;4902255;29;20155;-75
2023/03/15 01:42:08;;;;;;;3.72;2.22;;;;;;;2.82;100.00;101158.75;4905851;29;20091;-75
2023/03/15 01:45:01;;;;;;;3.50;2.53;;;;;;;2.85;100.00;101166.34;4893380;29;20479;-73
2023/03/15 01:47:28;;;;;;;3.60;2.50;;;;;;;2.68;100.00;101170.72;4907388;29;20113;-75
2023/03/15 01:50:05;;;;;;;4.28;2.40;;;;;;;2.75;100.00;101173.81;4899356;29;20067;-75
2023/03/15 01:52:36;;;;;;;4.07;2.40;;;;;;;2.80;100.00;101183.91;4907985;29;20091;-75
2023/03/15 01:55:13;;;;;;;3.60;2.00;;;;;;;2.76;100.00;101184.09;4905611;29;20063;-75
2023/03/15 01:57:47;;;;;;;4.35;2.40;;;;;;;2.81;100.00;101186.41;4897168;29;20056;-75
2023/03/15 02:00:16;;;;;;;2.95;1.90;;;;;;;2.75;100.00;101179.00;4902848;29;20139;-75
2023/03/15 02:02:52;;;;;;;4.22;2.15;;;;;;;2.76;100.00;101175.47;4900404;29;20132;-75
2023/03/15 02:05:26;;;;;;;3.65;2.25;;;;;;;2.74;100.00;101185.09;4908539;29;20052;-75
2023/03/15 02:07:53;;;;;;;4.57;2.10;;;;;;;2.72;100.00;101192.13;4898004;29;20055;-75
2023/03/15 02:10:32;;;;;;;3.70;1.98;;;;;;;2.62;100.00;101190.97;4911764;29;20509;-74
2023/03/15 02:12:59;;;;;;;2.78;2.20;;;;;;;2.55;100.00;101182.72;4893295;29;20055;-75
2023/03/15 02:15:26;;;;;;;5.75;2.53;;;;;;;2.57;100.00;101193.81;4908131;29;20465;-75
2023/03/15 02:17:53;;;;;;;5.55;2.20;;;;;;;2.53;100.00;101184.56;4912958;29;20511;-75
2023/03/15 02:20:47;;;;;;;3.45;2.60;;;;;;;2.57;100.00;101191.22;4904456;29;20056;-76
2023/03/15 02:23:16;;;;;;;4.60;2.70;;;;;;;2.49;100.00;101191.66;4905897;29;20052;-76
2023/03/15 02:26:07;;;;;;;5.15;2.90;;;;;;;2.56;100.00;101194.72;4902820;29;20052;-76
2023/03/15 02:28:34;;;;;;;5.07;2.80;;;;;;;2.56;100.00;101197.31;4894970;29;20067;-74
2023/03/15 02:31:02;;;;;;;3.90;2.90;;;;;;;2.64;100.00;101199.47;4889358;29;20520;-74
2023/03/15 02:33:42;;;;;;;4.28;2.72;;;;;;;2.70;100.00;101202.56;4911090;29;20056;-75
2023/03/15 02:36:21;;;;;;;4.70;3.20;;;;;;;2.75;100.00;101202.31;4897718;29;20442;-76
2023/03/15 02:38:48;;;;;;;6.18;2.78;;;;;;;2.82;100.00;101216.56;4893771;29;20059;-75
2023/03/15 02:41:28;;;;;;;4.28;3.30;;;;;;;2.77;100.00;101211.66;4911086;29;20084;-75
2023/03/15 02:44:00;;;;;;;4.00;3.00;;;;;;;2.78;100.00;101217.66;4910989;29;20104;-75
2023/03/15 02:46:27;;;;;;;7.38;3.70;;;;;;;2.76;100.00;101215.19;4911588;29;20537;-75
2023/03/15 02:48:54;;;;;;;5.57;3.80;;;;;;;2.75;100.00;101220.44;4902090;29;20056;-75
2023/03/15 02:51:23;;;;;;;4.95;4.15;;;;;;;2.78;100.00;101217.66;4900673;29;20056;-75
2023/03/15 02:53:50;;;;;;;5.07;4.07;;;;;;;2.74;100.00;101222.22;4904318;29;20056;-76
2023/03/15 02:56:16;;;;;;;4.82;3.80;;;;;;;2.72;100.00;101225.78;4906316;29;20052;-72
2023/03/15 02:58:44;;;;;;;6.20;4.30;;;;;;;2.72;100.00;101221.44;4891782;29;20044;-76
2023/03/15 03:01:14;;;;;;;5.95;4.53;;;;;;;2.73;100.00;101236.06;4912840;29;20198;-77
2023/03/15 03:03:43;;;;;;;7.18;5.20;;;;;;;2.62;100.00;101241.00;4906141;29;20309;-76
2023/03/15 03:06:11;;;;;;;7.80;4.60;;;;;;;2.67;100.00;101240.78;4888794;29;20509;-76
2023/03/15 03:08:38;;;;;;;;;;;;;;;2.72;100.00;101251.69;4911216;29;20541;-76
2023/03/15 03:11:05;;;;;;;7.85;4.57;;;;;;;2.65;100.00;101253.81;4903265;29;19927;-75
2023/03/15 03:13:32;;;;;;;7.38;5.13;;;;;;;2.66;100.00;101265.00;4911310;29;20055;-75
2023/03/15 03:15:59;;;;;;;8.85;4.80;;;;;;;2.62;100.00;101263.50;4903623;29;20058;-76
2023/03/15 03:18:29;;;;;;;6.55;4.57;;;;;;;2.64;100.00;101270.25;4905349;29;20059;-73
2023/03/15 03:20:58;;;;;;;7.05;4.40;;;;;;;2.60;100.00;101267.91;4906892;29;20052;-75
2023/03/15 03:23:25;;;;;;;6.60;4.38;;;;;;;2.55;100.00;101281.13;4906061;29;20486;-76
2023/03/15 03:25:53;;;;;;;6.20;4.65;;;;;;;2.60;100.00;101286.88;4894990;29;20052;-75
2023/03/15 03:28:22;;;;;;;6.78;4.40;;;;;;;2.55;100.00;101286.31;4902398;29;20528;-76
2023/03/15 03:30:50;;;;;;;6.10;4.15;;;;;;;2.55;100.00;101294.91;4908968;29;20056;-75
2023/03/15 03:33:17;;;;;;;9.07;4.63;;;;;;;2.55;100.00;101296.66;4899047;29;20071;-76
2023/03/15 03:35:44;;;;;;;6.50;4.20;;;;;;;2.57;100.00;101297.41;4892784;29;20047;-70
2023/03/15 03:38:11;;;;;;;5.90;4.43;;;;;;;2.57;100.00;101303.44;4910064;29;20477;-69
2023/03/15 03:40:38;;;;;;;8.98;5.15;;;;;;;2.58;100.00;101304.25;4901874;29;20143;-69
2023/03/15 03:43:06;;;;;;;9.98;5.20;;;;;;;2.55;100.00;101304.44;4906510;29;20048;-69
2023/03/15 03:45:33;;;;;;;6.45;4.68;;;;;;;2.53;100.00;101308.88;4899522;29;20417;-69
2023/03/15 03:48:00;;;;;;;8.18;5.25;;;;;;;2.47;100.00;101307.44;4906282;29;20505;-76
2023/03/15 03:50:27;;;;;;;7.30;4.63;;;;;;;2.47;100.00;101311.75;4903084;29;20062;-75
2023/03/15 03:52:53;;;;;;;6.20;4.50;;;;;;;2.41;100.00;101315.53;4910331;29;20064;-75
2023/03/15 03:55:23;;;;;;;7.63;4.90;;;;;;;2.41;100.00;101322.44;4906970;29;20139;-73
2023/03/15 03:57:51;;;;;;;6.38;4.47;;;;;;;2.40;100.00;101334.56;4896196;29;20052;-75
2023/03/15 04:00:19;;;;;;;6.70;4.00;;;;;;;2.37;100.00;101334.72;4904380;29;20375;-75
2023/03/15 04:02:46;;;;;;;5.53;3.92;;;;;;;2.30;100.00;101339.38;4904218;29;20413;-75
2023/03/15 04:05:12;;;;;;;6.82;4.03;;;;;;;2.31;100.00;101342.81;4910455;29;20143;-75
2023/03/15 04:07:40;;;;;;;8.45;4.20;;;;;;;2.30;100.00;101341.97;4902856;29;20093;-76
2023/03/15 04:10:07;;;;;;;5.32;3.95;;;;;;;2.27;100.00;101352.47;4910676;29;20056;-75
2023/03/15 04:12:34;;;;;;;5.97;4.13;;;;;;;2.29;100.00;101355.00;4905035;29;20409;-76
2023/03/15 04:15:00;;;;;;;8.02;4.57;;;;;;;2.30;100.00;101354.94;4898025;29;20135;-76
2023/03/15 04:17:27;;;;;;;7.10;3.90;;;;;;;2.31;100.00;101366.09;4909815;29;20052;-75
2023/03/15 04:19:54;;;;;;;5.88;4.10;;;;;;;2.30;100.00;101362.69;4902213;29;20067;-75
2023/03/15 04:22:20;;;;;;;7.80;3.80;;;;;;;2.26;100.00;101371.53;4910648;29;20155;-77
2023/03/15 04:24:49;;;;;;;6.68;4.18;;;;;;;2.24;100.00;101367.38;4903257;29;20056;-74
2023/03/15 04:27:16;;;;;;;6.53;3.40;;;;;;;2.24;100.00;101363.00;4904983;29;20461;-75
2023/03/15 04:29:42;;;;;;;5.00;3.65;;;;;;;2.23;100.00;101361.31;4909633;29;20286;-75
2023/03/15 04:32:09;;;;;;;5.05;3.78;;;;;;;2.25;100.00;101369.03;4902414;29;20429;-75
2023/03/15 04:34:39;;;;;;;7.50;4.35;;;;;;;2.27;100.00;101382.72;4892932;29;20112;-75
2023/03/15 04:37:05;;;;;;;7.00;4.38;;;;;;;2.26;100.00;101376.72;4899426;29;20076;-75
2023/03/15 04:39:32;;;;;;;6.45;4.30;;;;;;;2.27;100.00;101388.72;4909218;29;20052;-74
2023/03/15 04:41:58;;;;;;;6.85;4.30;;;;;;;2.29;100.00;101384.31;4896893;29;20497;-73
2023/03/15 04:44:25;;;;;;;7.03;4.20;;;;;;;2.30;100.00;101393.75;4905373;29;20048;-75
2023/03/15 04:46:54;;;;;;;6.63;3.72;;;;;;;2.29;100.00;101401.59;4908806;29;20056;-77
2023/03/15 04:49:21;;;;;;;6.90;4.43;;;;;;;2.26;100.00;101396.59;4899237;29;20052;-75
2023/03/15 04:51:47;;;;;;;7.13;4.40;;;;;;;2.27;100.00;101398.25;4892720;29;20509;-77
2023/03/15 04:54:14;;;;;;;7.88;4.90;;;;;;;2.26;100.00;101401.78;4899871;29;20055;-75
2023/03/15 04:56:41;;;;;;;6.32;4.32;;;;;;;2.27;100.00;101401.66;4901656;29;20519;-77
2023/03/15 04:59:09;;;;;;;6.55;4.28;;;;;;;2.27;100.00;101416.38;4895480;29;20064;-73
2023/03/15 05:01:36;;;;;;;6.97;4.50;;;;;;;2.29;100.00;101412.78;4893216;29;20343;-75
2023/03/15 05:04:03;;;;;;;8.38;4.93;;;;;;;2.24;100.00;101417.38;4908962;29;20498;-75
2023/03/15 05:06:29;;;;;;;8.50;5.55;;;;;;;2.23;100.00;101420.03;4901617;29;20108;-74
2023/03/15 05:08:56;;;;;;;7.95;4.65;;;;;;;2.24;100.00;101427.72;4904718;29;20044;-75
2023/03/15 05:11:22;;;;;;;13.25;6.10;;;;;;;2.19;100.00;101427.13;4900746;29;20411;-74
2023/03/15 05:13:49;;;;;;;10.57;5.50;;;;;;;2.17;100.00;101434.94;4909614;29;20063;-75
2023/03/15 05:16:16;;;;;;;8.13;4.97;;;;;;;2.17;100.00;101437.53;4902101;29;20425;-75
2023/03/15 05:18:44;;;;;;;9.95;5.80;;;;;;;2.17;100.00;101437.53;4908979;29;20056;-75
2023/03/15 05:21:12;;;;;;;8.23;5.30;;;;;;;2.21;100.00;101445.16;4903858;29;20501;-75
2023/03/15 05:23:38;;;;;;;7.73;4.97;;;;;;;2.20;100.00;101452.09;4896575;29;20571;-75
2023/03/15 05:26:05;;;;;;;10.45;6.00;;;;;;;2.13;100.00;101458.47;4887371;29;20520;-75
2023/03/15 05:28:31;;;;;;;10.13;5.75;;;;;;;2.15;100.00;101465.25;4899014;29;20059;-75
2023/03/15 05:30:58;;;;;;;8.55;5.78;;;;;;;2.15;100.00;101467.00;4908441;29;20497;-74
2023/03/15 05:33:26;;;;;;;22.90;6.03;;;;;;;2.14;100.00;101471.34;4902940;29;20056;-75
2023/03/15 05:35:55;;;;;;;9.18;5.55;;;;;;;2.08;100.00;101475.97;4903292;29;20056;-75
2023/03/15 05:38:25;;;;;;;;;;;;;;;2.09;100.00;101481.09;4906770;29;20087;-73
2023/03/15 05:40:52;;;;;;;10.20;5.68;;;;;;;2.10;100.00;101482.78;4892591;29;20412;-74
2023/03/15 05:43:20;;;;;;;9.90;5.70;;;;;;;2.14;100.00;101480.88;4909115;29;20072;-75
2023/03/15 05:45:47;;;;;;;10.15;5.90;;;;;;;2.09;100.00;101477.66;4901052;29;20104;-75
2023/03/15 05:48:15;;;;;;;9.23;5.97;;;;;;;2.11;100.00;101487.03;4901873;29;20322;-73
2023/03/15 05:50:42;;;;;;;10.15;6.03;;;;;;;2.05;100.00;101486.50;4896062;29;20088;-75
2023/03/15 05:53:09;;;;;;;9.50;6.15;;;;;;;2.01;100.00;101482.38;4905815;29;20473;-75
2023/03/15 05:55:36;;;;;;;9.30;5.95;;;;;;;2.00;100.00;101478.97;4904479;29;20056;-75
2023/03/15 05:58:02;;;;;;;8.90;6.28;;;;;;;2.00;100.00;101481.56;4899721;29;20051;-74
2023/03/15 06:00:29;;;;;;;10.23;6.25;;;;;;;2.01;100.00;101483.22;4908500;29;20056;-74
2023/03/15 06:02:56;;;;;;;12.07;6.15;;;;;;;2.02;100.00;101491.81;4896146;29;20516;-74
2023/03/15 06:05:22;;;;;;;10.98;7.18;;;;;;;2.03;100.00;101496.09;4902505;29;20134;-74
2023/03/15 06:07:49;;;;;;;11.45;7.05;;;;;;;2.01;100.00;101501.31;4901852;29;20077;-74
2023/03/15 06:10:15;;;;;;;11.90;6.45;;;;;;;2.01;100.00;101505.69;4890607;29;20529;-74
2023/03/15 06:12:43;;;;;;;11.35;6.28;;;;;;;1.97;100.00;101510.16;4908341;29;20052;-74
2023/03/15 06:15:10;;;;;;;10.68;6.47;;;;;;;1.96;100.00;101516.22;4906707;29;20472;-76
2023/03/15 06:17:39;;;;;;;10.68;6.32;;;;;;;1.96;100.00;101517.09;4903389;29;20479;-75
2023/03/15 06:20:07;;;;;;;10.45;6.78;;;;;;;1.95;100.00;101522.34;4896254;29;20048;-75
2023/03/15 06:22:33;;;;;;;11.50;6.45;;;;;;;1.94;100.00;101524.09;4910764;29;20497;-74
2023/03/15 06:25:01;;;;;;;10.40;6.28;;;;;;;1.91;100.00;101521.63;4901001;29;20060;-75
2023/03/15 06:27:28;;;;;;;11.07;6.63;;;;;;;1.90;100.00;101524.28;4909457;29;20048;-77
2023/03/15 06:29:56;;;;;;;10.35;6.97;;;;;;;1.94;100.00;101543.94;4914525;29;20610;-76
2023/03/15 06:32:23;;;;;;;11.75;7.05;;;;;;;1.93;100.00;101556.03;4900799;29;20099;-77
2023/03/15 06:34:49;;;;;;;9.68;6.05;;;;;;;1.90;100.00;101563.97;4910047;29;20064;-75
2023/03/15 06:37:16;;;;;;;15.93;7.80;;;;;;;1.86;100.00;101564.16;4902171;29;20064;-74
2023/03/15 06:39:59;;;;;;;11.32;7.03;;;;;;;1.81;100.00;101564.38;4900152;29;20059;-75
2023/03/15 06:42:26;;;;;;;10.13;6.45;;;;;;;1.86;100.00;101559.84;4901691;29;20336;-76
2023/03/15 06:44:53;;;;;;;10.98;6.22;;;;;;;1.87;100.00;101563.25;4912217;29;20075;-76
2023/03/15 06:47:19;;;;;;;16.00;6.82;;;;;;;1.87;100.00;101558.91;4908019;29;20056;-76
2023/03/15 06:49:49;;;;;;;11.10;6.40;;;;;;;1.93;100.00;101571.56;4881759;29;20485;-75
2023/03/15 06:52:16;;;;;;;10.63;6.50;;;;;;;2.00;100.00;101582.47;4907917;29;20120;-76
2023/03/15 06:54:43;;;;;;;11.63;7.35;;;;;;;1.97;100.00;101585.19;4904274;29;20058;-76
2023/03/15 06:57:09;;;;;;;11.98;7.22;;;;;;;2.01;100.00;101597.06;4902008;29;20044;-75
2023/03/15 06:59:36;;;;;;;15.63;6.93;;;;;;;2.07;100.00;101596.78;4882560;29;20418;-76
2023/03/15 07:02:03;;;;;;;15.05;8.93;;;;;;;2.08;100.00;101597.63;4908634;29;20067;-76
2023/03/15 07:04:30;;;;;;;13.50;6.70;;;;;;;2.09;100.00;101596.72;4912094;29;20096;-77
2023/03/15 07:06:56;;;;;;;11.70;6.55;;;;;;;2.13;100.00;101609.44;4906258;29;20067;-75
2023/03/15 07:09:23;;;;;;;11.70;6.30;;;;;;;2.15;100.00;101612.78;4913053;29;20062;-76
2023/03/15 07:11:52;;;;;;;10.93;6.82;;;;;;;2.16;100.00;101614.47;4900688;29;20048;-78
2023/03/15 07:14:18;;;;;;;8.15;5.68;;;;;;;2.21;100.00;101624.59;4908502;29;20147;-76
2023/03/15 07:16:46;;;;;;;11.95;5.97;;;;;;;2.24;100.00;101621.88;4906817;29;20087;-77
2023/03/15 07:19:13;;;;;;;10.45;4.80;;;;;;;2.22;100.00;101630.66;4911798;29;20493;-77
2023/03/15 07:21:42;;;;;;;7.38;4.65;;;;;;;2.30;100.00;101623.34;4900673;29;20048;-75
2023/03/15 07:24:13;;;;;;;11.45;4.20;;;;;;;2.33;100.00;101628.34;4889737;29;20052;-76
2023/03/15 07:26:40;;;;;;;10.07;4.80;;;;;;;2.37;100.00;101633.34;4911099;29;20075;-75
2023/03/15 07:29:07;;;;;;;12.43;5.30;;;;;;;2.38;100.00;101641.94;4911111;29;20087;-78
2023/03/15 07:31:33;;;;;;;9.43;5.00;;;;;;;2.36;100.00;101647.19;4915128;29;20048;-76
2023/03/15 07:34:00;;;;;;;9.52;5.47;;;;;;;2.42;100.00;101646.06;4908843;29;20055;-75
2023/03/15 07:36:26;;;;;;;8.02;4.95;;;;;;;2.44;100.00;101651.16;4915392;29;20146;-76
2023/03/15 07:38:53;;;;;;;9.30;3.92;;;;;;;2.44;100.00;101657.19;4914752;29;20064;-77
2023/03/15 07:41:20;;;;;;;8.57;3.67;;;;;;;2.48;100.00;101660.47;4909055;29;20142;-76
2023/03/15 07:43:47;;;;;;;9.35;3.72;;;;;;;2.49;100.00;101656.94;4925086;29;20071;-73
2023/03/15 07:46:16;;;;;;;10.73;3.88;;;;;;;2.57;100.00;101660.84;4925775;29;20071;-74
2023/03/15 07:48:43;;;;;;;7.57;4.55;;;;;;;2.62;100.00;101673.56;4922197;29;20076;-75
2023/03/15 07:51:09;;;;;;;9.98;5.28;;;;;;;2.61;100.00;101674.50;4910964;29;20134;-77
2023/03/15 07:53:36;;;;;;;11.68;5.82;;;;;;;2.66;100.00;101685.47;4910557;29;20060;-77
2023/03/15 07:56:03;;;;;;;11.50;5.45;;;;;;;2.64;100.00;101687.28;4914568;29;20058;-77
2023/03/15 07:58:30;;;;;;;10.07;5.38;;;;;;;2.53;100.00;101689.59;4892067;29;20050;-75
2023/03/15 08:00:56;;;;;;;10.88;4.90;;;;;;;2.52;100.00;101700.84;4913485;29;20048;-77
2023/03/15 08:03:25;;;;;;;11.65;5.25;;;;;;;2.56;100.00;101702.38;4904047;29;20080;-76
2023/03/15 08:05:54;;;;;;;;;;;;;;;2.64;100.00;101697.66;4895800;29;20489;-76
2023/03/15 08:08:23;;;;;;;6.38;3.47;;;;;;;2.67;100.00;101705.28;4902095;29;20013;-77
2023/03/15 08:10:49;;;;;;;9.30;3.80;;;;;;;2.69;100.00;101708.66;4912011;29;20051;-76
2023/03/15 08:13:16;;;;;;;9.27;3.95;;;;;;;2.70;100.00;101712.06;4911274;29;20056;-76
2023/03/15 08:15:45;;;;;;;11.00;4.80;;;;;;;2.76;100.00;101715.22;4907456;29;20067;-75
2023/03/15 08:18:12;;;;;;;10.60;4.85;;;;;;;2.81;100.00;101719.34;4905561;29;20044;-74
2023/03/15 08:20:39;;;;;;;10.85;5.07;;;;;;;2.89;100.00;101725.00;4890337;29;20056;-76
2023/03/15 08:23:07;;;;;;;9.35;4.60;;;;;;;2.95;100.00;101727.28;4893561;29;20048;-77
2023/03/15 08:25:39;;;;;;;9.82;5.05;;;;;;;2.98;100.00;101729.72;4906155;29;20118;-74
2023/03/15 08:28:06;;;;;;;11.60;4.80;;;;;;;3.00;100.00;101730.50;4905561;29;20111;-75
2023/03/15 08:30:32;;;;;;;11.57;4.32;;;;;;;3.00;100.00;101733.09;4907458;29;20398;-76
2023/03/15 08:32:59;;;;;;;9.77;4.72;;;;;;;3.00;100.00;101729.63;4911251;29;20063;-76
2023/03/15 08:35:26;;;;;;;9.20;3.80;;;;;;;3.04;100.00;101731.16;4904366;29;20056;-76
2023/03/15 08:37:54;;;;;;;10.88;4.55;;;;;;;3.06;100.00;101732.78;4900938;29;20056;-75
2023/03/15 08:40:23;;;;;;;8.32;4.15;;;;;;;3.12;100.00;101735.06;4910195;29;20044;-75
2023/03/15 08:42:51;;;;;;;14.55;4.97;;;;;;;3.20;100.00;101744.22;4903506;29;20528;-76
2023/03/15 08:45:19;;;;;;;10.13;4.72;;;;;;;3.24;100.00;101746.59;4910790;29;20056;-75
2023/03/15 08:47:45;;;;;;;8.95;5.50;;;;;;;3.31;100.00;101747.09;4898895;29;20099;-76
2023/03/15 08:50:14;;;;;;;7.65;4.53;;;;;;;3.38;100.00;101745.88;4901245;29;21224;-75
2023/03/15 08:52:41;;;;;;;9.77;4.88;;;;;;;3.43;100.00;101756.03;4909565;29;20083;-75
2023/03/15 08:55:09;;;;;;;11.15;4.88;;;;;;;3.49;100.00;101755.72;4903124;29;20054;-75
2023/03/15 08:57:35;;;;;;;12.13;4.40;;;;;;;3.53;100.00;101754.66;4910373;29;20108;-76
2023/03/15 09:00:07;;;;;;;6.45;2.92;;;;;;;3.55;100.00;101765.81;4902352;29;20147;-75
2023/03/15 09:02:35;;;;;;;5.45;2.55;;;;;;;3.59;100.00;101769.91;4905139;29;20080;-76
2023/03/15 09:05:05;;;;;;;5.45;3.13;;;;;;;3.70;100.00;101767.59;4880646;29;20123;-75
2023/03/15 09:07:32;;;;;;;7.82;3.30;;;;;;;3.78;100.00;101771.56;4903120;29;20056;-74
2023/03/15 09:09:59;;;;;;;4.53;2.20;;;;;;;3.81;100.00;101774.84;4908304;29;20055;-76
2023/03/15 09:12:26;;;;;;;7.22;2.17;;;;;;;3.85;100.00;101770.34;4903474;29;20494;-76
2023/03/15 09:14:53;;;;;;;10.63;2.92;;;;;;;3.95;100.00;101769.75;4894035;29;20075;-75
2023/03/15 09:17:20;;;;;;;7.40;2.78;;;;;;;4.04;100.00;101773.66;4895115;29;20577;-74
2023/03/15 09:19:46;;;;;;;5.22;2.30;;;;;;;4.12;100.00;101778.44;4909862;29;20485;-73
2023/03/15 09:22:13;;;;;;;7.82;2.78;;;;;;;4.24;100.00;101777.78;4902408;29;20056;-75
2023/03/15 09:24:59;;;;;;;8.25;2.38;;;;;;;4.35;100.00;101777.19;4907883;29;20063;-76
2023/03/15 09:27:29;;;;;;;8.60;2.33;;;;;;;4.45;100.00;101781.00;4908778;29;20078;-75
2023/03/15 09:29:55;;;;;;;3.90;2.00;;;;;;;4.55;100.00;101782.16;4896232;29;20370;-75
2023/03/15 09:32:22;;;;;;;5.97;1.48;;;;;;;4.75;100.00;101783.66;4904360;29;20055;-75
2023/03/15 09:34:50;;;;;;;3.83;1.60;;;;;;;4.86;100.00;101783.06;4902955;29;20670;-74
2023/03/15 09:37:17;;;;;;;7.93;1.88;;;;;;;5.00;100.00;101787.50;4910582;29;20056;-76
2023/03/15 09:39:43;;;;;;;5.72;1.55;;;;;;;5.11;100.00;101782.50;4902868;29;20517;-76
2023/03/15 09:42:40;;;;;;;9.50;1.73;;;;;;;5.22;100.00;101779.31;4907702;29;20062;-75
2023/03/15 09:45:21;;;;;;;9.15;1.92;;;;;;;5.37;100.00;101790.59;4890376;29;20056;-76
2023/03/15 09:48:13;;;;;;;8.85;1.70;;;;;;;5.43;100.00;101784.19;4906202;29;20556;-75
2023/03/15 09:50:42;;;;;;;6.43;1.48;;;;;;;5.54;100.00;101785.22;4905790;29;20631;-74
2023/03/15 09:53:17;;;;;;;6.85;2.33;;;;;;;5.59;92.20;101787.59;4893142;29;20421;-74
2023/03/15 09:55:47;;;;;;;5.72;1.63;;;;;;;5.71;98.14;101786.00;4908256;29;20094;-76
2023/03/15 09:58:20;;;;;;;5.07;1.45;;;;;;;5.79;97.43;101794.19;4896322;29;20055;-76
2023/03/15 10:00:53;;;;;;;8.25;1.63;;;;;;;6.02;100.00;101789.41;4904611;29;20066;-76
2023/03/15 10:03:52;;;;;;;10.02;1.63;;;;;;;6.16;91.09;101796.41;4884540;29;20052;-76
2023/03/15 10:06:27;;;;;;;;;;;;;;;6.44;100.00;101803.34;4906019;29;20755;-75
2023/03/15 10:08:57;;;;;;;11.68;1.70;;;;;;;6.62;100.00;101796.13;4901612;29;19923;-75
2023/03/15 10:11:37;;;;;;;6.10;1.60;;;;;;;6.57;87.10;101790.38;4877928;29;20319;-76
2023/03/15 10:14:38;;;;;;;5.40;1.42;;;;;;;6.43;87.96;101794.69;4899700;29;20084;-76
2023/03/15 10:17:39;;;;;;;6.80;1.50;;;;;;;6.47;87.41;101800.56;4907841;29;20417;-76
2023/03/15 10:20:12;;;;;;;5.82;1.52;;;;;;;6.56;83.48;101801.72;4880860;29;20052;-76
2023/03/15 10:22:54;;;;;;;6.53;1.05;;;;;;;6.88;83.38;101797.06;4915569;29;20142;-74
2023/03/15 10:25:27;;;;;;;8.52;1.08;;;;;;;6.88;74.13;101802.28;4907186;29;20047;-74
2023/03/15 10:28:22;;;;;;;2.83;0.60;;;;;;;6.96;73.90;101800.06;4901761;29;20487;-76
2023/03/15 10:30:50;;;;;;;3.88;1.00;;;;;;;7.04;69.68;101799.56;4907149;29;20473;-75
2023/03/15 10:33:37;;;;;;;6.27;1.20;;;;;;;7.19;69.29;101790.72;4900153;29;20052;-76
2023/03/15 10:36:15;;;;;;;5.95;1.20;;;;;;;7.36;72.33;101786.16;4907759;29;21030;-76
2023/03/15 10:38:43;;;;;;;2.92;0.70;;;;;;;7.46;68.95;101788.03;4899493;29;20047;-77
2023/03/15 10:41:12;;;;;;;6.40;1.00;;;;;;;7.26;64.83;101788.56;4904142;29;20055;-76
2023/03/15 10:44:15;;;;;;;4.75;0.95;;;;;;;6.95;64.95;101784.50;4904985;29;20062;-75
2023/03/15 10:47:08;;;;;;;6.82;1.35;;;;;;;7.02;65.12;101793.59;4909790;29;20112;-76
2023/03/15 10:49:48;;;;;;;6.97;1.08;;;;;;;7.45;70.98;101798.63;4904240;29;20055;-77
2023/03/15 10:52:34;;;;;;;4.30;0.98;;;;;;;7.75;69.97;101798.31;4908048;29;20056;-76
2023/03/15 10:55:03;;;;;;;5.93;1.30;;;;;;;7.99;66.13;101801.03;4893874;29;20048;-74
2023/03/15 10:57:38;;;;;;;2.80;0.90;;;;;;;8.24;63.64;101810.63;4910209;29;20067;-75
2023/03/15 11:00:21;;;;;;;6.40;0.90;;;;;;;7.91;59.74;101809.38;4885910;29;20048;-74
2023/03/15 11:02:50;;;;;;;5.38;1.20;;;;;;;7.88;62.50;101816.63;4910703;29;20052;-76
2023/03/15 11:05:18;;;;;;;5.30;1.20;;;;;;;8.21;67.23;101820.44;4911924;29;20050;-77
2023/03/15 11:07:57;;;;;;;3.50;1.02;;;;;;;8.40;61.66;101815.59;4899829;29;20052;-77
2023/03/15 11:10:27;;;;;;;3.80;0.85;;;;;;;8.63;62.57;101823.66;4902993;29;20072;-77
2023/03/15 11:13:20;;;;;;;6.45;1.25;;;;;;;8.80;58.56;101827.66;4903635;29;20058;-74
2023/03/15 11:16:00;;;;;;;5.57;1.15;;;;;;;9.08;65.07;101824.72;4895086;29;20524;-74
2023/03/15 11:18:42;;;;;;;6.68;1.27;;;;;;;9.38;61.54;101828.66;4891946;29;20068;-76
2023/03/15 11:21:15;;;;;;;7.15;1.63;;;;;;;9.58;61.52;101840.25;4903478;29;20055;-75
2023/03/15 11:23:52;;;;;;;4.38;1.15;;;;;;;9.52;57.29;101832.03;4898777;29;20059;-75
2023/03/15 11:26:21;;;;;;;3.95;1.38;;;;;;;9.64;55.67;101839.81;4909962;29;20093;-75
2023/03/15 11:29:04;;;;;;;4.65;0.90;;;;;;;9.75;53.31;101846.84;4903073;29;20063;-76
2023/03/15 11:31:32;;;;;;;3.10;0.70;;;;;;;9.98;52.53;101839.03;4910637;29;20086;-76
2023/03/15 11:34:07;;;;;;;6.00;1.70;;;;;;;9.63;51.42;101851.22;4892011;29;20139;-74
2023/03/15 11:36:40;;;;;;;6.93;1.08;;;;;;;9.79;55.21;101853.53;4896725;29;20650;-75